createdAt,value
2019-02-04T00:00:30.345Z,1.40
2019-02-04T00:02:59.037Z,1.40
2019-02-04T00:05:27.273Z,1.33
2019-02-04T00:07:55.529Z,1.60
2019-02-04T00:10:23.745Z,1.47
2019-02-04T00:12:52.562Z,1.33
2019-02-04T00:15:20.970Z,1.40
2019-02-04T00:17:49.857Z,1.30
2019-02-04T00:20:18.088Z,1.70
2019-02-04T00:22:46.901Z,1.30
2019-02-04T00:25:15.133Z,1.50
2019-02-04T00:27:43.546Z,1.20
2019-02-04T00:30:18.013Z,1.40
2019-02-04T00:32:46.269Z,1.53
2019-02-04T00:35:14.505Z,1.30
2019-02-04T00:37:42.748Z,1.23
2019-02-04T00:40:23.621Z,1.60
2019-02-04T00:42:51.866Z,1.20
2019-02-04T00:45:20.098Z,1.60
2019-02-04T00:47:48.909Z,1.20
2019-02-04T00:50:18.889Z,1.40
2019-02-04T00:52:47.146Z,1.30
2019-02-04T00:55:15.449Z,1.10
2019-02-04T00:57:43.969Z,1.00
2019-02-04T01:00:15.458Z,1.20
2019-02-04T01:02:43.697Z,1.30
2019-02-04T01:05:12.258Z,1.27
2019-02-04T01:07:40.499Z,1.73
2019-02-04T01:10:17.638Z,1.23
2019-02-04T01:12:45.881Z,1.20
2019-02-04T01:15:14.118Z,1.50
2019-02-04T01:17:42.367Z,2.00
2019-02-04T01:20:16.765Z,1.60
2019-02-04T01:22:45.015Z,1.40
2019-02-04T01:25:13.522Z,1.30
2019-02-04T01:27:41.769Z,1.40
2019-02-04T01:30:15.326Z,1.30
2019-02-04T01:32:43.571Z,1.13
2019-02-04T01:35:11.811Z,1.40
2019-02-04T01:37:40.613Z,1.23
2019-02-04T01:40:17.866Z,1.50
2019-02-04T01:42:46.116Z,1.23
2019-02-04T01:45:14.342Z,1.20
2019-02-04T01:47:42.586Z,1.30
2019-02-04T01:50:14.321Z,1.20
2019-02-04T01:52:42.566Z,1.40
2019-02-04T01:55:12.713Z,1.20
2019-02-04T01:57:40.953Z,1.03
2019-02-04T02:00:15.165Z,1.47
2019-02-04T02:02:43.405Z,1.00
2019-02-04T02:05:12.013Z,1.10
2019-02-04T02:07:40.258Z,1.07
2019-02-04T02:10:11.498Z,1.37
2019-02-04T02:12:39.742Z,1.60
2019-02-04T02:15:08.646Z,1.30
2019-02-04T02:17:36.890Z,1.33
2019-02-04T02:20:08.866Z,1.40
2019-02-04T02:22:37.784Z,1.40
2019-02-04T02:25:07.062Z,1.10
2019-02-04T02:27:35.294Z,1.23
2019-02-04T02:30:08.664Z,1.10
2019-02-04T02:32:37.271Z,1.50
2019-02-04T02:35:06.955Z,1.00
2019-02-04T02:37:35.181Z,1.30
2019-02-04T02:40:08.644Z,1.37
2019-02-04T02:42:36.874Z,1.30
2019-02-04T02:45:08.086Z,1.40
2019-02-04T02:47:38.321Z,1.27
2019-02-04T02:50:09.476Z,1.30
2019-02-04T02:52:37.699Z,1.30
2019-02-04T02:55:08.782Z,0.83
2019-02-04T02:57:37.581Z,1.20
2019-02-04T03:00:09.170Z,1.30
2019-02-04T03:02:37.974Z,1.20
2019-02-04T03:05:09.258Z,1.10
2019-02-04T03:07:37.491Z,1.07
2019-02-04T03:10:08.574Z,1.10
2019-02-04T03:12:36.805Z,1.20
2019-02-04T03:15:07.967Z,1.30
2019-02-04T03:17:36.201Z,1.23
2019-02-04T03:20:06.686Z,1.07
2019-02-04T03:22:34.921Z,1.13
2019-02-04T03:25:03.168Z,1.20
2019-02-04T03:27:31.394Z,1.27
2019-02-04T03:30:00.400Z,1.30
2019-02-04T03:32:28.726Z,0.90
2019-02-04T03:34:56.971Z,1.10
2019-02-04T03:37:25.203Z,1.10
2019-02-04T03:39:53.526Z,0.90
2019-02-04T03:42:21.757Z,1.03
2019-02-04T03:44:50.477Z,1.10
2019-02-04T03:47:18.739Z,1.10
2019-02-04T03:49:47.030Z,1.40
2019-02-04T03:52:15.334Z,1.30
2019-02-04T03:54:43.581Z,0.93
2019-02-04T03:57:11.809Z,1.30
2019-02-04T03:59:40.426Z,1.07
2019-02-04T04:02:08.653Z,1.10
2019-02-04T04:04:36.898Z,0.90
2019-02-04T04:07:05.129Z,1.17
2019-02-04T04:09:33.945Z,1.20
2019-02-04T04:12:02.605Z,1.00
2019-02-04T04:14:30.849Z,1.13
2019-02-04T04:16:59.081Z,1.47
2019-02-04T04:19:27.313Z,1.00
2019-02-04T04:21:55.557Z,0.83
2019-02-04T04:24:24.457Z,1.30
2019-02-04T04:26:52.701Z,0.90
2019-02-04T04:29:20.928Z,1.07
2019-02-04T04:31:49.347Z,1.30
2019-02-04T04:34:17.577Z,1.30
2019-02-04T04:36:45.825Z,1.17
2019-02-04T04:39:14.062Z,0.90
2019-02-04T04:41:42.309Z,1.10
2019-02-04T04:44:10.538Z,1.17
2019-02-04T04:46:39.258Z,0.90
2019-02-04T04:49:07.488Z,1.37
2019-02-04T04:51:35.729Z,0.90
2019-02-04T04:54:03.962Z,1.03
2019-02-04T04:56:33.097Z,0.90
2019-02-04T04:59:01.330Z,1.00
2019-02-04T05:01:29.577Z,1.23
2019-02-04T05:03:57.809Z,1.67
2019-02-04T05:06:26.045Z,0.80
2019-02-04T05:08:54.277Z,1.17
2019-02-04T05:11:22.522Z,0.73
2019-02-04T05:13:50.757Z,1.00
2019-02-04T05:16:19.668Z,1.30
2019-02-04T05:18:48.078Z,0.90
2019-02-04T05:21:16.321Z,1.10
2019-02-04T05:23:44.552Z,1.37
2019-02-04T05:26:12.785Z,1.10
2019-02-04T05:28:41.028Z,1.07
2019-02-04T05:31:09.264Z,0.90
2019-02-04T05:33:37.880Z,1.17
2019-02-04T05:36:06.121Z,1.07
2019-02-04T05:38:34.350Z,1.00
2019-02-04T05:41:02.761Z,0.90
2019-02-04T05:43:30.993Z,1.27
2019-02-04T05:45:59.257Z,1.17
2019-02-04T05:48:27.487Z,0.90
2019-02-04T05:50:55.720Z,0.80
2019-02-04T05:53:23.968Z,1.00
2019-02-04T05:55:52.206Z,0.80
2019-02-04T05:58:20.437Z,1.33
2019-02-04T06:00:49.439Z,1.00
2019-02-04T06:03:17.676Z,0.80
2019-02-04T06:05:45.905Z,0.80
2019-02-04T06:08:14.145Z,0.80
2019-02-04T06:10:42.377Z,1.07
2019-02-04T06:13:10.621Z,1.20
2019-02-04T06:15:38.858Z,1.43
2019-02-04T06:18:07.101Z,0.90
2019-02-04T06:20:35.705Z,0.97
2019-02-04T06:23:03.941Z,0.80
2019-02-04T06:25:32.177Z,0.97
2019-02-04T06:28:00.488Z,0.90
2019-02-04T06:30:28.733Z,0.80
2019-02-04T06:32:56.997Z,1.17
2019-02-04T06:35:25.596Z,0.90
2019-02-04T06:37:53.836Z,0.90
2019-02-04T06:40:22.117Z,0.70
2019-02-04T06:42:50.386Z,1.10
2019-02-04T06:45:18.705Z,0.80
2019-02-04T06:47:47.005Z,0.90
2019-02-04T06:50:19.807Z,1.23
2019-02-04T06:52:48.073Z,1.17
2019-02-04T06:55:24.924Z,1.23
2019-02-04T06:57:53.720Z,0.80
2019-02-04T07:00:21.961Z,0.83
2019-02-04T07:02:50.197Z,1.20
2019-02-04T07:05:18.817Z,0.90
2019-02-04T07:07:47.049Z,0.90
2019-02-04T07:10:17.433Z,0.83
2019-02-04T07:12:45.664Z,0.90
2019-02-04T07:15:13.893Z,1.10
2019-02-04T07:17:42.137Z,0.90
2019-02-04T07:20:16.537Z,0.80
2019-02-04T07:22:44.773Z,0.93
2019-02-04T07:25:14.247Z,0.90
2019-02-04T07:27:42.484Z,0.90
2019-02-04T07:30:13.753Z,1.23
2019-02-04T07:32:41.997Z,0.90
2019-02-04T07:35:12.789Z,1.20
2019-02-04T07:37:41.057Z,0.80
2019-02-04T07:40:12.585Z,0.80
2019-02-04T07:42:40.830Z,0.70
2019-02-04T07:45:10.505Z,0.83
2019-02-04T07:47:38.746Z,1.80
2019-02-04T07:50:09.104Z,1.20
2019-02-04T07:52:37.342Z,0.83
2019-02-04T07:55:08.008Z,0.90
2019-02-04T07:57:36.336Z,0.80
2019-02-04T08:00:22.385Z,0.70
2019-02-04T08:02:50.629Z,0.90
2019-02-04T08:05:21.822Z,0.90
2019-02-04T08:07:50.061Z,0.70
2019-02-04T08:10:18.288Z,0.90
2019-02-04T08:12:46.535Z,0.93
2019-02-04T08:15:34.767Z,1.00
2019-02-04T08:18:03.052Z,1.10
2019-02-04T08:20:31.285Z,0.70
2019-02-04T08:22:59.554Z,0.80
2019-02-04T08:25:27.804Z,0.70
2019-02-04T08:27:57.318Z,0.80
2019-02-04T08:30:38.286Z,0.97
2019-02-04T08:33:05.965Z,0.80
2019-02-04T08:35:34.467Z,0.90
2019-02-04T08:38:02.789Z,1.00
2019-02-04T08:40:31.277Z,1.00
2019-02-04T08:43:00.790Z,0.87
2019-02-04T08:45:29.043Z,1.00
2019-02-04T08:47:57.273Z,0.80
2019-02-04T08:50:26.853Z,1.40
2019-02-04T08:52:55.168Z,0.90
2019-02-04T08:55:23.514Z,0.83
2019-02-04T08:57:52.121Z,0.90
2019-02-04T09:00:22.765Z,0.97
2019-02-04T09:02:51.633Z,1.00
2019-02-04T09:05:21.028Z,0.87
2019-02-04T09:07:49.338Z,0.80
2019-02-04T09:10:31.650Z,1.10
2019-02-04T09:13:00.116Z,0.83
2019-02-04T09:15:28.354Z,0.80
2019-02-04T09:17:57.022Z,0.80
2019-02-04T09:20:25.265Z,1.03
2019-02-04T09:22:53.500Z,0.80
2019-02-04T09:25:26.544Z,0.80
2019-02-04T09:27:55.919Z,0.80
2019-02-04T09:30:25.874Z,0.77
2019-02-04T09:32:54.373Z,0.83
2019-02-04T09:35:22.885Z,1.10
2019-02-04T09:37:51.281Z,0.73
2019-02-04T09:40:31.508Z,1.10
2019-02-04T09:42:59.809Z,0.90
2019-02-04T09:45:28.206Z,0.93
2019-02-04T09:47:56.911Z,0.90
2019-02-04T09:50:34.398Z,1.27
2019-02-04T09:53:02.633Z,1.07
2019-02-04T09:55:33.309Z,0.80
2019-02-04T09:58:02.224Z,0.80
2019-02-04T10:00:32.390Z,0.97
2019-02-04T10:03:00.634Z,0.90
2019-02-04T10:05:28.869Z,1.07
2019-02-04T10:07:57.112Z,0.90
2019-02-04T10:10:27.379Z,1.00
2019-02-04T10:12:55.616Z,1.40
2019-02-04T10:15:26.117Z,1.00
2019-02-04T10:17:54.416Z,0.77
2019-02-04T10:20:33.089Z,0.70
2019-02-04T10:22:52.700Z,1.10
2019-02-04T10:25:26.845Z,1.20
2019-02-04T10:27:55.123Z,0.80
2019-02-04T10:30:24.360Z,0.80
2019-02-04T10:32:53.262Z,0.80
2019-02-04T10:35:21.529Z,0.93
2019-02-04T10:37:51.029Z,0.83
2019-02-04T10:40:25.110Z,0.90
2019-02-04T10:42:53.441Z,1.03
2019-02-04T10:45:21.689Z,1.03
2019-02-04T10:47:50.353Z,1.27
2019-02-04T10:50:29.770Z,0.90
2019-02-04T10:52:58.976Z,0.90
2019-02-04T10:55:27.318Z,0.70
2019-02-04T10:57:55.696Z,0.87
2019-02-04T11:00:34.648Z,0.87
2019-02-04T11:03:03.390Z,0.97
2019-02-04T11:05:34.053Z,1.20
2019-02-04T11:08:02.359Z,0.93
2019-02-04T11:10:34.478Z,0.90
2019-02-04T11:13:04.737Z,1.00
2019-02-04T11:15:33.021Z,0.63
2019-02-04T11:18:01.648Z,0.90
2019-02-04T11:20:31.336Z,1.20
2019-02-04T11:22:59.641Z,0.90
2019-02-04T11:25:27.942Z,1.00
2019-02-04T11:27:56.197Z,0.70
2019-02-04T11:30:30.328Z,0.80
2019-02-04T11:32:58.729Z,0.80
2019-02-04T11:35:27.015Z,0.90
2019-02-04T11:37:55.353Z,1.00
2019-02-04T11:40:26.956Z,0.73
2019-02-04T11:42:55.342Z,0.77
2019-02-04T11:45:23.742Z,0.90
2019-02-04T11:47:52.082Z,0.90
2019-02-04T11:50:20.374Z,0.87
2019-02-04T11:52:48.597Z,0.80
2019-02-04T11:55:17.445Z,0.80
2019-02-04T11:57:45.741Z,0.80
2019-02-04T12:00:28.425Z,1.20
2019-02-04T12:02:57.897Z,0.80
2019-02-04T12:05:26.142Z,1.10
2019-02-04T12:07:54.373Z,1.00
2019-02-04T12:10:31.274Z,0.70
2019-02-04T12:12:59.977Z,0.80
2019-02-04T12:15:28.221Z,1.20
2019-02-04T12:17:56.451Z,1.00
2019-02-04T12:20:24.694Z,0.80
2019-02-04T12:22:52.922Z,0.70
2019-02-04T12:25:25.581Z,1.00
2019-02-04T12:27:54.624Z,1.10
2019-02-04T12:30:25.450Z,0.90
2019-02-04T12:32:53.745Z,0.77
2019-02-04T12:35:21.985Z,0.90
2019-02-04T12:37:50.309Z,1.60
2019-02-04T12:40:18.633Z,0.80
2019-02-04T12:42:46.937Z,0.73
2019-02-04T12:45:22.633Z,0.90
2019-02-04T12:47:50.863Z,1.00
2019-02-04T12:50:19.101Z,1.00
2019-02-04T12:52:47.333Z,1.10
2019-02-04T12:55:18.177Z,1.07
2019-02-04T12:57:46.681Z,0.90
2019-02-04T13:00:20.373Z,0.80
2019-02-04T13:02:48.606Z,1.00
2019-02-04T13:05:25.897Z,0.83
2019-02-04T13:07:54.134Z,0.87
2019-02-04T13:10:22.849Z,0.80
2019-02-04T13:12:51.077Z,0.73
2019-02-04T13:15:21.716Z,1.00
2019-02-04T13:17:50.011Z,0.70
2019-02-04T13:20:20.101Z,0.90
2019-02-04T13:22:49.053Z,0.80
2019-02-04T13:25:19.957Z,1.10
2019-02-04T13:27:48.188Z,1.10
2019-02-04T13:30:24.480Z,0.90
2019-02-04T13:32:52.720Z,1.13
2019-02-04T13:35:20.954Z,0.90
2019-02-04T13:37:49.180Z,0.80
2019-02-04T13:40:23.585Z,0.90
2019-02-04T13:42:51.813Z,0.70
2019-02-04T13:45:20.785Z,1.10
2019-02-04T13:47:49.768Z,1.20
2019-02-04T13:50:19.537Z,1.00
2019-02-04T13:52:48.054Z,0.93
2019-02-04T13:55:27.759Z,0.90
2019-02-04T13:57:55.997Z,1.10
2019-02-04T14:00:26.975Z,1.13
2019-02-04T14:02:59.339Z,0.90
2019-02-04T14:05:24.797Z,0.83
2019-02-04T14:07:53.045Z,0.77
2019-02-04T14:10:29.478Z,0.87
2019-02-04T14:12:57.722Z,0.80
2019-02-04T14:15:26.222Z,0.80
2019-02-04T14:17:56.045Z,0.70
2019-02-04T14:20:25.604Z,0.80
2019-02-04T14:22:53.921Z,1.27
2019-02-04T14:25:22.145Z,0.70
2019-02-04T14:27:50.401Z,0.80
2019-02-04T14:30:29.429Z,0.90
2019-02-04T14:32:57.673Z,0.80
2019-02-04T14:35:25.906Z,0.83
2019-02-04T14:37:54.217Z,0.80
2019-02-04T14:40:22.786Z,0.90
2019-02-04T14:42:54.666Z,0.90
2019-02-04T14:45:32.197Z,0.80
2019-02-04T14:48:18.714Z,0.90
2019-02-04T14:50:55.312Z,0.63
2019-02-04T14:53:51.246Z,0.73
2019-02-04T14:56:45.219Z,0.70
2019-02-04T14:59:19.622Z,0.70
2019-02-04T15:02:17.980Z,0.77
2019-02-04T15:04:52.741Z,0.70
2019-02-04T15:07:46.830Z,0.90
2019-02-04T15:10:33.449Z,0.80
2019-02-04T15:13:19.525Z,0.80
2019-02-04T15:16:08.848Z,0.80
2019-02-04T15:18:43.390Z,0.90
2019-02-04T15:21:39.058Z,0.80
2019-02-04T15:24:25.562Z,0.80
2019-02-04T15:27:12.150Z,0.90
2019-02-04T15:29:49.489Z,0.80
2019-02-04T15:32:45.525Z,0.90
2019-02-04T15:35:28.975Z,0.73
2019-02-04T15:38:03.012Z,0.73
2019-02-04T15:40:37.209Z,0.70
2019-02-04T15:43:23.897Z,0.90
2019-02-04T15:45:55.887Z,0.80
2019-02-04T15:48:27.217Z,0.87
2019-02-04T15:51:07.460Z,0.70
2019-02-04T15:53:35.695Z,0.80
2019-02-04T15:56:04.582Z,0.97
2019-02-04T15:58:32.813Z,0.70
2019-02-04T16:01:01.066Z,0.63
2019-02-04T16:03:29.965Z,0.90
2019-02-04T16:05:58.217Z,0.80
2019-02-04T16:08:26.446Z,0.70
2019-02-04T16:10:54.686Z,1.17
2019-02-04T16:13:23.295Z,0.77
2019-02-04T16:15:51.533Z,0.70
2019-02-04T16:18:19.767Z,0.90
2019-02-04T16:20:48.013Z,0.90
2019-02-04T16:23:16.245Z,0.90
2019-02-04T16:25:44.489Z,0.80
2019-02-04T16:28:13.284Z,0.70
2019-02-04T16:30:41.526Z,0.90
2019-02-04T16:33:09.757Z,1.03
2019-02-04T16:35:37.993Z,0.80
2019-02-04T16:38:06.225Z,0.83
2019-02-04T16:40:34.457Z,0.90
2019-02-04T16:43:02.697Z,0.70
2019-02-04T16:45:31.305Z,0.77
2019-02-04T16:47:59.789Z,0.70
2019-02-04T16:50:28.657Z,0.67
2019-02-04T16:52:56.903Z,0.60
2019-02-04T16:55:25.134Z,0.70
2019-02-04T16:57:54.489Z,0.93
2019-02-04T17:00:28.076Z,0.70
2019-02-04T17:02:56.494Z,0.77
2019-02-04T17:05:25.861Z,0.60
2019-02-04T17:07:54.106Z,0.80
2019-02-04T17:10:24.373Z,0.90
2019-02-04T17:12:52.612Z,0.70
2019-02-04T17:15:20.838Z,0.80
2019-02-04T17:17:49.091Z,0.80
2019-02-04T17:20:22.609Z,0.80
2019-02-04T17:22:50.845Z,0.70
2019-02-04T17:25:19.074Z,0.70
2019-02-04T17:27:47.408Z,0.70
2019-02-04T17:30:20.926Z,1.07
2019-02-04T17:32:49.170Z,0.70
2019-02-04T17:35:17.396Z,0.80
2019-02-04T17:37:45.641Z,0.70
2019-02-04T17:40:16.109Z,0.77
2019-02-04T17:42:44.349Z,0.70
2019-02-04T17:45:15.133Z,0.83
2019-02-04T17:47:43.380Z,0.90
2019-02-04T17:50:14.049Z,0.70
2019-02-04T17:52:42.316Z,0.80
2019-02-04T17:55:16.272Z,0.63
2019-02-04T17:57:44.515Z,0.80
2019-02-04T18:00:19.249Z,0.70
2019-02-04T18:02:47.494Z,0.63
2019-02-04T18:05:15.722Z,0.87
2019-02-04T18:07:43.969Z,0.67
2019-02-04T18:10:17.571Z,0.70
2019-02-04T18:12:46.200Z,0.83
2019-02-04T18:15:19.410Z,0.70
2019-02-04T18:17:47.645Z,0.60
2019-02-04T18:20:16.467Z,0.80
2019-02-04T18:22:44.845Z,0.77
2019-02-04T18:25:15.590Z,0.70
2019-02-04T18:27:43.821Z,0.60
2019-02-04T18:30:20.441Z,0.80
2019-02-04T18:32:48.672Z,0.80
2019-02-04T18:35:17.091Z,0.83
2019-02-04T18:37:45.853Z,0.80
2019-02-04T18:40:19.067Z,0.70
2019-02-04T18:42:47.669Z,0.80
2019-02-04T18:45:24.348Z,0.83
2019-02-04T18:47:52.579Z,0.80
2019-02-04T18:50:21.928Z,0.70
2019-02-04T18:52:50.537Z,0.83
2019-02-04T18:55:32.855Z,0.70
2019-02-04T18:58:01.185Z,0.53
2019-02-04T19:00:31.748Z,0.73
2019-02-04T19:03:01.593Z,0.80
2019-02-04T19:05:29.833Z,0.83
2019-02-04T19:07:58.073Z,0.83
2019-02-04T19:10:26.318Z,0.70
2019-02-04T19:12:54.554Z,0.80
2019-02-04T19:15:24.628Z,0.83
2019-02-04T19:17:54.996Z,0.70
2019-02-04T19:20:23.608Z,0.70
2019-02-04T19:22:51.837Z,0.70
2019-02-04T19:25:21.693Z,0.83
2019-02-04T19:27:50.969Z,0.60
2019-02-04T19:30:31.307Z,0.90
2019-02-04T19:33:00.213Z,0.80
2019-02-04T19:35:28.454Z,0.60
2019-02-04T19:37:56.694Z,1.00
2019-02-04T19:40:24.934Z,0.60
2019-02-04T19:42:53.168Z,0.70
2019-02-04T19:45:23.049Z,0.87
2019-02-04T19:47:51.556Z,1.00
2019-02-04T19:50:38.366Z,1.07
2019-02-04T19:53:06.595Z,0.70
2019-02-04T19:55:34.833Z,0.80
2019-02-04T19:58:03.068Z,0.70
2019-02-04T20:00:32.156Z,0.70
2019-02-04T20:03:00.385Z,0.70
2019-02-04T20:05:31.030Z,1.00
2019-02-04T20:07:59.439Z,2.37
2019-02-04T20:10:32.016Z,1.93
2019-02-04T20:13:00.878Z,2.30
2019-02-04T20:15:33.050Z,1.77
2019-02-04T20:18:01.293Z,2.60
2019-02-04T20:20:29.517Z,2.00
2019-02-04T20:22:57.829Z,2.73
2019-02-04T20:25:33.451Z,1.70
2019-02-04T20:28:02.237Z,2.60
2019-02-04T20:30:44.706Z,1.63
2019-02-04T20:33:02.673Z,1.67
2019-02-04T20:35:30.906Z,1.90
2019-02-04T20:37:59.145Z,1.77
2019-02-04T20:40:27.645Z,2.00
2019-02-04T20:42:56.557Z,1.63
2019-02-04T20:45:25.073Z,2.17
2019-02-04T20:47:53.308Z,1.60
2019-02-04T20:50:24.339Z,1.50
2019-02-04T20:52:52.582Z,1.47
2019-02-04T20:55:21.142Z,3.20
2019-02-04T20:57:49.449Z,2.10
2019-02-04T21:00:20.398Z,1.70
2019-02-04T21:02:48.647Z,1.40
2019-02-04T21:05:17.442Z,1.40
2019-02-04T21:07:45.852Z,1.70
2019-02-04T21:10:18.866Z,1.33
2019-02-04T21:12:47.188Z,1.53
2019-02-04T21:15:18.008Z,1.60
2019-02-04T21:17:46.249Z,1.73
2019-02-04T21:20:25.362Z,1.63
2019-02-04T21:22:53.601Z,2.20
2019-02-04T21:25:21.829Z,1.27
2019-02-04T21:27:50.450Z,1.63
2019-02-04T21:30:21.125Z,1.50
2019-02-04T21:32:49.371Z,1.50
2019-02-04T21:35:17.597Z,1.40
2019-02-04T21:37:45.842Z,1.40
2019-02-04T21:40:18.186Z,1.53
2019-02-04T21:42:46.824Z,1.67
2019-02-04T21:45:23.554Z,1.50
2019-02-04T21:47:51.857Z,1.20
2019-02-04T21:50:21.928Z,1.30
2019-02-04T21:52:50.164Z,1.30
2019-02-04T21:55:18.645Z,1.47
2019-02-04T21:57:46.881Z,1.40
2019-02-04T22:00:18.386Z,1.47
2019-02-04T22:02:46.617Z,1.37
2019-02-04T22:05:17.401Z,1.30
2019-02-04T22:07:45.636Z,0.90
2019-02-04T22:10:16.433Z,1.10
2019-02-04T22:12:44.661Z,1.20
2019-02-04T22:15:12.908Z,1.33
2019-02-04T22:17:41.813Z,2.03
2019-02-04T22:20:15.310Z,1.60
2019-02-04T22:22:43.541Z,1.30
2019-02-04T22:25:19.637Z,1.30
2019-02-04T22:27:43.668Z,1.20
2019-02-04T22:30:15.130Z,2.63
2019-02-04T22:32:44.306Z,1.20
2019-02-04T22:35:12.554Z,1.50
2019-02-04T22:37:40.797Z,1.20
2019-02-04T22:40:14.685Z,1.30
2019-02-04T22:42:42.913Z,1.53
2019-02-04T22:45:13.394Z,1.30
2019-02-04T22:47:41.660Z,0.93
2019-02-04T22:50:13.309Z,1.20
2019-02-04T22:52:41.545Z,1.20
2019-02-04T22:55:10.229Z,1.30
2019-02-04T22:57:38.465Z,1.00
2019-02-04T23:00:24.005Z,1.33
2019-02-04T23:02:52.243Z,1.10
2019-02-04T23:05:20.486Z,0.97
2019-02-04T23:07:49.193Z,1.20
2019-02-04T23:10:17.445Z,1.63
2019-02-04T23:12:45.676Z,1.10
2019-02-04T23:15:13.921Z,1.40
2019-02-04T23:17:42.156Z,1.20
2019-02-04T23:20:10.566Z,1.43
2019-02-04T23:22:38.806Z,1.00
2019-02-04T23:25:08.030Z,1.20
2019-02-04T23:27:36.257Z,1.30
2019-02-04T23:30:07.757Z,1.17
2019-02-04T23:32:36.005Z,1.27
2019-02-04T23:35:04.617Z,1.00
2019-02-04T23:37:32.844Z,0.90
2019-02-04T23:40:01.095Z,1.17
2019-02-04T23:42:29.328Z,1.10
2019-02-04T23:44:57.564Z,1.27
2019-02-04T23:47:26.373Z,1.00
2019-02-04T23:49:54.628Z,1.40
2019-02-04T23:52:23.433Z,0.90
2019-02-04T23:54:52.617Z,1.23
2019-02-04T23:57:20.858Z,1.20
2019-02-04T23:59:49.092Z,0.97
